createdAt,value
2022-09-07T00:00:01.770Z,21.74
2022-09-07T00:07:02.305Z,21.27
2022-09-07T00:14:01.887Z,21.27
2022-09-07T00:21:01.733Z,20.96
2022-09-07T00:28:01.864Z,20.96
2022-09-07T00:35:01.998Z,20.64
2022-09-07T00:42:01.642Z,20.64
2022-09-07T00:49:02.028Z,20.44
2022-09-07T00:56:01.931Z,20.44
2022-09-07T01:00:02.567Z,20.25
2022-09-07T01:07:01.867Z,20.25
2022-09-07T01:14:02.052Z,19.96
2022-09-07T01:21:01.508Z,19.96
2022-09-07T01:28:01.453Z,19.95
2022-09-07T01:35:01.601Z,19.95
2022-09-07T01:42:01.731Z,19.82
2022-09-07T01:49:01.728Z,19.82
2022-09-07T01:56:02.185Z,19.68
2022-09-07T02:00:01.732Z,19.68
2022-09-07T02:07:02.139Z,19.57
2022-09-07T02:14:01.816Z,19.57
2022-09-07T02:21:01.522Z,19.55
2022-09-07T02:28:01.782Z,19.53
2022-09-07T02:35:01.594Z,19.53
2022-09-07T02:42:02.140Z,19.47
2022-09-07T02:49:02.017Z,19.47
2022-09-07T02:56:01.729Z,19.45
2022-09-07T03:00:02.442Z,19.45
2022-09-07T03:07:02.300Z,19.34
2022-09-07T03:14:01.438Z,19.34
2022-09-07T03:21:01.551Z,19.26
2022-09-07T03:28:01.819Z,19.26
2022-09-07T03:35:02.332Z,19.14
2022-09-07T03:42:02.207Z,19.14
2022-09-07T03:49:02.016Z,19.04
2022-09-07T03:56:01.775Z,19.04
2022-09-07T04:00:02.397Z,19.04
2022-09-07T04:07:01.407Z,19.04
2022-09-07T04:14:02.149Z,18.98
2022-09-07T04:21:02.146Z,18.98
2022-09-07T04:28:01.385Z,18.96
2022-09-07T04:35:01.625Z,18.96
2022-09-07T04:42:02.009Z,18.85
2022-09-07T04:49:01.340Z,18.85
2022-09-07T04:56:01.823Z,18.8
2022-09-07T05:00:02.596Z,18.8
2022-09-07T05:07:01.483Z,18.81
2022-09-07T05:14:02.391Z,18.81
2022-09-07T05:21:01.563Z,18.8
2022-09-07T05:28:02.137Z,18.62
2022-09-07T05:35:02.188Z,18.62
2022-09-07T05:42:01.907Z,18.69
2022-09-07T05:49:01.535Z,18.69
2022-09-07T05:56:06.484Z,18.58
2022-09-07T06:00:01.629Z,18.58
2022-09-07T06:07:21.050Z,18.65
2022-09-07T06:14:01.521Z,18.65
2022-09-07T06:21:01.392Z,18.67
2022-09-07T06:28:02.050Z,18.67
2022-09-07T06:35:01.742Z,18.69
2022-09-07T06:42:02.021Z,18.69
2022-09-07T06:49:02.165Z,18.68
2022-09-07T06:56:01.973Z,18.68
2022-09-07T07:00:01.518Z,18.74
2022-09-07T07:07:01.949Z,18.74
2022-09-07T07:14:01.623Z,18.78
2022-09-07T07:21:01.839Z,18.78
2022-09-07T07:35:01.653Z,18.84
2022-09-07T07:42:03.220Z,18.95
2022-09-07T07:49:02.116Z,18.95
2022-09-07T07:56:02.303Z,19.01
2022-09-07T08:00:01.952Z,19.01
2022-09-07T08:07:05.607Z,19.03
2022-09-07T08:14:01.894Z,19.03
2022-09-07T08:21:01.568Z,19.15
2022-09-07T08:28:01.361Z,19.15
2022-09-07T08:35:01.784Z,19.11
2022-09-07T08:42:01.525Z,19.11
2022-09-07T08:49:01.886Z,19.11
2022-09-07T08:56:01.691Z,19.26
2022-09-07T09:00:02.271Z,19.26
2022-09-07T09:07:01.881Z,19.34
2022-09-07T09:14:01.532Z,19.34
2022-09-07T09:21:02.118Z,19.43
2022-09-07T09:28:02.096Z,19.43
2022-09-07T09:35:01.796Z,19.51
2022-09-07T09:42:01.394Z,19.51
2022-09-07T09:49:01.666Z,19.54
2022-09-07T09:56:01.938Z,19.54
2022-09-07T10:00:05.725Z,19.62
2022-09-07T10:07:01.353Z,19.62
2022-09-07T10:14:01.406Z,19.68
2022-09-07T10:21:01.828Z,19.68
2022-09-07T10:28:01.952Z,19.85
2022-09-07T10:35:01.803Z,19.85
2022-09-07T10:42:02.186Z,19.88
2022-09-07T10:49:02.010Z,19.88
2022-09-07T10:56:02.303Z,20.06
2022-09-07T11:00:09.664Z,20.06
2022-09-07T11:07:02.133Z,20.14
2022-09-07T11:21:01.389Z,20.25
2022-09-07T11:28:01.886Z,20.25
2022-09-07T11:35:01.950Z,20.36
2022-09-07T11:42:42.595Z,20.4
2022-09-07T11:49:04.271Z,20.4
2022-09-07T11:56:02.134Z,20.52
2022-09-07T12:00:01.775Z,20.52
2022-09-07T12:07:02.026Z,20.59
2022-09-07T12:14:01.496Z,20.59
2022-09-07T12:21:02.243Z,20.68
2022-09-07T12:28:01.935Z,20.68
2022-09-07T12:35:02.499Z,20.74
2022-09-07T12:42:32.423Z,20.74
2022-09-07T12:49:01.462Z,20.87
2022-09-07T12:56:17.449Z,20.87
2022-09-07T13:00:02.460Z,20.94
2022-09-07T13:07:02.017Z,20.94
2022-09-07T13:14:04.440Z,20.99
2022-09-07T13:21:01.634Z,20.99
2022-09-07T13:28:02.270Z,21.01
2022-09-07T13:35:02.591Z,21.01
2022-09-07T13:42:01.387Z,21.11
2022-09-07T13:49:02.342Z,21.11
2022-09-07T13:56:02.220Z,21.18
2022-09-07T14:00:01.796Z,21.18
2022-09-07T14:07:01.655Z,21.17
2022-09-07T14:14:02.203Z,21.17
2022-09-07T14:21:02.024Z,21.27
2022-09-07T14:28:02.177Z,21.27
2022-09-07T14:35:01.766Z,21.35
2022-09-07T14:42:02.052Z,21.46
2022-09-07T14:49:02.257Z,21.46
2022-09-07T14:56:02.185Z,21.54
2022-09-07T15:00:01.883Z,21.54
2022-09-07T15:07:02.524Z,21.54
2022-09-07T15:14:02.166Z,21.54
2022-09-07T15:21:02.306Z,21.59
2022-09-07T15:28:02.099Z,21.59
2022-09-07T15:35:02.448Z,21.6
2022-09-07T15:42:59.430Z,21.6
2022-09-07T15:49:01.928Z,21.69
2022-09-07T15:56:03.197Z,21.69
2022-09-07T16:00:01.970Z,21.74
2022-09-07T16:07:01.821Z,21.74
2022-09-07T16:14:02.035Z,21.78
2022-09-07T16:21:01.857Z,21.78
2022-09-07T16:28:02.195Z,21.79
2022-09-07T16:35:02.433Z,21.79
2022-09-07T16:42:01.971Z,21.87
2022-09-07T16:49:02.328Z,21.87
2022-09-07T16:56:02.190Z,21.89
2022-09-07T17:00:01.760Z,21.89
2022-09-07T17:07:02.169Z,21.9
2022-09-07T17:14:02.082Z,21.9
2022-09-07T17:21:01.592Z,21.96
2022-09-07T17:28:01.975Z,21.96
2022-09-07T17:35:02.138Z,21.96
2022-09-07T17:42:01.799Z,21.94
2022-09-07T17:49:01.353Z,21.94
2022-09-07T17:56:01.863Z,21.89
2022-09-07T18:00:11.336Z,21.89
2022-09-07T18:07:01.403Z,21.89
2022-09-07T18:14:01.699Z,21.74
2022-09-07T18:21:02.047Z,21.65
2022-09-07T18:35:02.321Z,21.62
2022-09-07T18:42:01.524Z,21.62
2022-09-07T18:49:01.936Z,21.54
2022-09-07T18:56:01.619Z,21.54
2022-09-07T19:00:02.187Z,21.44
2022-09-07T19:07:01.665Z,21.44
2022-09-07T19:14:02.256Z,21.28
2022-09-07T19:21:01.790Z,21.28
2022-09-07T19:28:02.234Z,21.2
2022-09-07T19:35:01.567Z,21.2
2022-09-07T19:42:02.089Z,21.14
2022-09-07T19:49:02.285Z,21.14
2022-09-07T19:56:01.959Z,21.05
2022-09-07T20:00:01.576Z,21.05
2022-09-07T20:07:02.281Z,21.01
2022-09-07T20:14:02.347Z,21.01
2022-09-07T20:21:01.609Z,20.98
2022-09-07T20:28:02.194Z,20.98
2022-09-07T20:35:01.989Z,20.92
2022-09-07T20:42:02.007Z,20.86
2022-09-07T20:49:02.192Z,20.86
2022-09-07T20:56:01.823Z,20.76
2022-09-07T21:00:02.554Z,20.76
2022-09-07T21:07:01.880Z,20.76
2022-09-07T21:14:01.614Z,20.72
2022-09-07T21:21:19.382Z,20.57
2022-09-07T21:28:02.114Z,20.57
2022-09-07T21:35:01.536Z,20.53
2022-09-07T21:42:01.771Z,20.53
2022-09-07T21:49:01.496Z,20.48
2022-09-07T21:56:02.261Z,20.48
2022-09-07T22:00:01.828Z,20.41
2022-09-07T22:07:02.153Z,20.41
2022-09-07T22:14:01.519Z,20.3
2022-09-07T22:21:01.726Z,20.3
2022-09-07T22:28:01.898Z,20.23
2022-09-07T22:35:01.888Z,20.23
2022-09-07T22:42:02.243Z,20.12
2022-09-07T22:49:01.797Z,20.12
2022-09-07T22:56:01.923Z,20.05
2022-09-07T23:00:02.706Z,20.05
2022-09-07T23:07:01.501Z,20.05
2022-09-07T23:14:01.910Z,20.05
2022-09-07T23:21:01.995Z,19.98
2022-09-07T23:28:02.001Z,19.98
2022-09-07T23:35:02.300Z,20.03
2022-09-07T23:42:01.483Z,19.99
2022-09-07T23:49:01.652Z,19.99
2022-09-07T23:56:01.685Z,19.94
